Time;durP1;ratioP1;P1;durP2;ratioP2;P2;SDS_P1;SDS_P2;PMS_P1;PMS_P2;Temp;Humidity;BMP_temperature;BMP_pressure;BME280_temperature;BME280_humidity;BME280_pressure;Samples;Min_cycle;Max_cycle;Signal;HPM_P1;HPM_P2
2022/12/23 00:00:17;;;;;;;51.50;26.97;;;10.30;99.90;;;;;;5074396;28;20477;-71
2022/12/23 00:02:44;;;;;;;12.73;7.73;;;10.30;99.90;;;;;;5071560;28;21022;-69
2022/12/23 00:05:12;;;;;;;18.13;9.10;;;10.30;99.90;;;;;;5072235;28;20490;-70
2022/12/23 00:07:39;;;;;;;8.70;7.67;;;10.30;99.90;;;;;;5082617;28;20450;-68
2022/12/23 00:10:07;;;;;;;7.63;6.93;;;10.40;99.90;;;;;;5077339;28;20473;-69
2022/12/23 00:15:19;;;;;;;10.60;7.03;;;10.40;99.90;;;;;;5078984;28;20460;-70
2022/12/23 00:17:46;;;;;;;8.47;6.37;;;10.40;99.90;;;;;;5079335;28;20750;-69
2022/12/23 00:20:14;;;;;;;8.80;6.20;;;10.30;99.90;;;;;;5077077;28;20850;-69
2022/12/23 00:25:40;;;;;;;7.43;6.83;;;10.10;99.90;;;;;;5081347;28;20955;-69
2022/12/23 00:28:10;;;;;;;9.57;7.30;;;10.30;99.90;;;;;;5080981;28;20468;-70
2022/12/23 00:30:43;;;;;;;7.60;7.10;;;10.30;99.90;;;;;;5081684;28;20877;-68
2022/12/23 00:33:10;;;;;;;8.53;7.87;;;10.40;99.90;;;;;;5074475;28;21477;-68
2022/12/23 00:35:37;;;;;;;11.93;7.67;;;10.40;99.90;;;;;;5079710;28;20471;-69
2022/12/23 00:38:03;;;;;;;9.47;8.47;;;10.40;99.90;;;;;;5080062;28;20470;-69
2022/12/23 00:43:15;;;;;;;9.50;7.40;;;10.30;99.90;;;;;;5079833;28;21057;-68
2022/12/23 00:45:43;;;;;;;8.13;7.33;;;10.30;99.90;;;;;;5080785;28;20462;-68
2022/12/23 00:50:54;;;;;;;8.47;7.70;;;10.40;99.90;;;;;;5075395;28;20540;-70
2022/12/23 00:53:22;;;;;;;15.47;8.23;;;10.40;99.90;;;;;;5078050;28;20468;-69
2022/12/23 00:55:49;;;;;;;10.90;7.00;;;10.40;99.90;;;;;;5077993;28;20482;-70
2022/12/23 00:58:18;;;;;;;9.30;8.50;;;10.40;99.90;;;;;;5076869;28;20878;-68
2022/12/23 01:06:16;;;;;;;14.10;8.10;;;10.40;99.90;;;;;;5079059;28;20461;-68
2022/12/23 01:08:43;;;;;;;10.03;8.33;;;10.40;99.90;;;;;;5079606;28;20454;-70
2022/12/23 01:11:12;;;;;;;11.67;9.40;;;10.20;99.90;;;;;;5077377;28;20475;-70
2022/12/23 01:13:39;;;;;;;15.33;8.37;;;10.20;99.90;;;;;;5079668;28;21269;-69
2022/12/23 01:16:09;;;;;;;12.93;9.03;;;10.20;99.90;;;;;;5076335;28;20922;-71
2022/12/23 01:18:37;;;;;;;17.57;10.27;;;10.30;99.90;;;;;;5075412;28;20467;-70
2022/12/23 01:21:05;;;;;;;12.50;9.70;;;10.40;99.90;;;;;;5079959;28;20524;-70
2022/12/23 01:23:33;;;;;;;15.53;10.23;;;10.40;99.90;;;;;;5080753;28;20986;-69
2022/12/23 01:26:02;;;;;;;13.40;9.60;;;10.40;99.90;;;;;;5078896;28;20476;-69
2022/12/23 01:28:30;;;;;;;12.33;9.70;;;10.40;99.90;;;;;;5077329;28;20454;-67
2022/12/23 01:30:59;;;;;;;14.03;11.97;;;10.40;99.90;;;;;;5078446;28;20894;-68
2022/12/23 01:33:28;;;;;;;13.77;11.83;;;10.40;99.90;;;;;;5081480;28;20458;-70
2022/12/23 01:35:59;;;;;;;14.00;12.57;;;10.40;99.90;;;;;;5076973;28;20450;-69
2022/12/23 01:38:26;;;;;;;14.80;13.20;;;10.10;99.90;;;;;;5081374;28;20465;-69
2022/12/23 01:40:53;;;;;;;13.40;11.77;;;10.40;99.90;;;;;;5073347;28;20466;-69
2022/12/23 01:43:19;;;;;;;12.70;11.53;;;10.40;99.90;;;;;;5077325;28;20469;-70
2022/12/23 01:45:46;;;;;;;13.07;11.07;;;10.40;99.90;;;;;;5078645;28;20866;-69
2022/12/23 01:48:17;;;;;;;13.20;12.00;;;10.40;99.90;;;;;;5081016;28;20462;-69
2022/12/23 01:50:48;;;;;;;13.53;11.73;;;10.40;99.90;;;;;;5075345;28;20458;-69
2022/12/23 01:53:19;;;;;;;14.57;11.47;;;10.10;99.90;;;;;;5078017;28;20489;-69
2022/12/23 01:55:49;;;;;;;15.17;11.40;;;10.30;99.90;;;;;;5073492;28;20467;-72
2022/12/23 01:58:20;;;;;;;15.27;13.67;;;10.10;99.90;;;;;;5075758;28;20458;-72
2022/12/23 02:03:44;;;;;;;18.23;13.53;;;10.30;99.90;;;;;;5076146;28;20507;-73
2022/12/23 02:09:18;;;;;;;16.60;11.80;;;10.30;99.90;;;;;;5080649;28;21055;-70
2022/12/23 02:12:21;;;;;;;19.23;11.40;;;10.30;99.90;;;;;;5084988;28;20506;-71
2022/12/23 02:18:02;;;;;;;14.80;11.63;;;10.20;99.90;;;;;;5080586;28;20492;-70
2022/12/23 02:21:01;;;;;;;15.60;12.70;;;10.20;99.90;;;;;;5074581;28;20465;-69
2022/12/23 02:24:11;;;;;;;16.83;12.87;;;10.20;99.90;;;;;;5074486;28;20463;-70
2022/12/23 02:26:59;;;;;;;12.77;10.70;;;10.20;99.90;;;;;;5065367;28;20827;-70
2022/12/23 02:29:57;;;;;;;15.80;14.20;;;10.20;99.90;;;;;;5047037;28;20457;-70
2022/12/23 02:32:33;;;;;;;16.00;12.60;;;10.30;99.90;;;;;;5075298;28;20462;-70
2022/12/23 02:35:10;;;;;;;14.23;12.30;;;10.30;99.90;;;;;;5078586;28;20979;-69
2022/12/23 02:37:43;;;;;;;20.07;12.07;;;10.30;99.90;;;;;;5078162;28;20493;-69
2022/12/23 02:40:20;;;;;;;15.70;13.97;;;10.30;99.90;;;;;;5074101;28;20471;-70
2022/12/23 02:42:53;;;;;;;18.80;12.97;;;10.40;99.90;;;;;;5081081;28;20458;-70
2022/12/23 02:45:26;;;;;;;15.27;13.00;;;10.40;99.90;;;;;;5081561;28;21666;-70
2022/12/23 02:47:59;;;;;;;13.10;11.77;;;10.40;99.90;;;;;;5076698;28;20469;-70
2022/12/23 02:50:32;;;;;;;20.17;12.23;;;10.40;99.90;;;;;;5077162;28;20879;-70
2022/12/23 02:53:03;;;;;;;13.30;11.20;;;10.30;99.90;;;;;;5073035;28;20470;-71
2022/12/23 02:55:35;;;;;;;17.53;14.37;;;10.40;99.90;;;;;;5083235;28;20462;-71
2022/12/23 02:58:05;;;;;;;13.53;11.93;;;10.30;99.90;;;;;;5078546;28;20498;-69
2022/12/23 03:00:33;;;;;;;27.00;13.67;;;10.30;99.90;;;;;;5075852;28;20485;-70
2022/12/23 03:03:02;;;;;;;19.23;12.73;;;10.40;99.90;;;;;;5080616;28;20482;-68
2022/12/23 03:05:36;;;;;;;16.57;11.20;;;10.30;99.90;;;;;;5077366;28;20475;-70
2022/12/23 03:08:06;;;;;;;17.17;13.80;;;10.30;99.90;;;;;;5081615;28;20994;-68
2022/12/23 03:10:45;;;;;;;16.10;14.43;;;10.30;99.90;;;;;;5084139;28;20451;-69
2022/12/23 03:13:24;;;;;;;21.43;14.47;;;10.40;99.90;;;;;;5082734;28;20454;-71
2022/12/23 03:15:57;;;;;;;18.13;14.70;;;10.30;99.90;;;;;;5079110;28;20472;-71
2022/12/23 03:18:37;;;;;;;20.53;14.43;;;10.20;99.90;;;;;;5078699;28;20497;-69
2022/12/23 03:21:10;;;;;;;16.37;14.77;;;10.30;99.90;;;;;;5077810;28;20548;-71
2022/12/23 03:23:42;;;;;;;17.90;13.10;;;10.20;99.90;;;;;;5076756;28;20466;-71
2022/12/23 03:26:16;;;;;;;15.63;14.10;;;10.30;99.90;;;;;;5084365;28;20564;-68
2022/12/23 03:28:49;;;;;;;20.53;13.97;;;10.30;99.90;;;;;;5083428;28;20454;-71
2022/12/23 03:31:22;;;;;;;16.70;15.00;;;10.00;99.90;;;;;;5081685;28;20466;-70
2022/12/23 03:33:54;;;;;;;15.80;14.13;;;10.20;99.90;;;;;;5073362;28;20466;-71
2022/12/23 03:36:26;;;;;;;17.03;15.33;;;10.20;99.90;;;;;;5071727;28;20474;-69
2022/12/23 03:38:55;;;;;;;14.33;13.13;;;10.30;99.90;;;;;;5078043;28;20474;-71
2022/12/23 03:41:27;;;;;;;16.77;14.60;;;10.20;99.90;;;;;;5082342;28;20822;-69
2022/12/23 03:43:59;;;;;;;18.23;13.87;;;10.20;99.90;;;;;;5081561;28;20543;-69
2022/12/23 03:46:32;;;;;;;13.97;12.77;;;10.20;99.90;;;;;;5074041;28;20458;-69
2022/12/23 03:49:17;;;;;;;16.50;13.30;;;10.20;99.90;;;;;;5079166;28;20465;-69
2022/12/23 03:51:48;;;;;;;15.63;13.00;;;10.20;99.90;;;;;;5076039;28;21024;-70
2022/12/23 03:54:20;;;;;;;18.27;12.97;;;10.20;99.90;;;;;;5080603;28;20466;-69
2022/12/23 03:56:52;;;;;;;14.40;12.37;;;10.20;99.90;;;;;;5085180;28;20478;-70
2022/12/23 03:59:23;;;;;;;11.90;11.00;;;10.20;99.90;;;;;;5080184;28;20485;-69
2022/12/23 04:02:00;;;;;;;17.00;13.20;;;10.20;99.90;;;;;;5074409;28;20462;-69
2022/12/23 04:04:34;;;;;;;12.80;11.43;;;10.20;99.90;;;;;;5077322;28;20532;-69
2022/12/23 04:07:07;;;;;;;11.97;10.77;;;10.10;99.90;;;;;;5079606;28;20463;-70
2022/12/23 04:09:36;;;;;;;12.90;11.63;;;10.20;99.90;;;;;;5078803;28;20473;-69
2022/12/23 04:12:03;;;;;;;17.37;11.37;;;10.20;99.90;;;;;;5082911;28;20828;-69
2022/12/23 04:14:33;;;;;;;12.33;10.90;;;10.10;99.90;;;;;;5078614;28;20845;-69
2022/12/23 04:17:01;;;;;;;17.73;10.70;;;10.10;99.90;;;;;;5079363;28;20486;-70
2022/12/23 04:19:30;;;;;;;12.67;11.40;;;10.10;99.90;;;;;;5078153;28;20465;-68
2022/12/23 04:21:57;;;;;;;22.67;11.30;;;10.10;99.90;;;;;;5082960;28;21011;-69
2022/12/23 04:24:24;;;;;;;12.17;10.80;;;10.10;99.90;;;;;;5075418;28;20484;-68
2022/12/23 04:26:51;;;;;;;12.20;11.10;;;10.10;99.90;;;;;;5082790;28;20478;-68
2022/12/23 04:29:18;;;;;;;12.60;11.00;;;9.80;99.90;;;;;;5078038;28;20450;-69
2022/12/23 04:31:45;;;;;;;12.57;11.43;;;10.10;99.90;;;;;;5078434;28;20515;-69
2022/12/23 04:34:12;;;;;;;11.40;10.30;;;10.00;99.90;;;;;;5078153;28;20492;-69
2022/12/23 04:36:40;;;;;;;13.87;10.60;;;10.00;99.90;;;;;;5079280;28;20461;-71
2022/12/23 04:39:07;;;;;;;12.53;10.33;;;10.00;99.90;;;;;;5082514;28;20465;-69
2022/12/23 04:41:34;;;;;;;10.97;9.93;;;9.90;99.90;;;;;;5078557;28;20461;-70
2022/12/23 04:44:01;;;;;;;12.03;10.50;;;10.00;99.90;;;;;;5078656;28;20695;-69
2022/12/23 04:46:28;;;;;;;12.23;11.20;;;10.00;99.90;;;;;;5078297;28;20466;-71
2022/12/23 04:48:55;;;;;;;11.67;10.50;;;10.00;99.90;;;;;;5078200;28;20471;-70
2022/12/23 04:51:22;;;;;;;13.03;11.43;;;10.00;99.90;;;;;;5079294;28;20820;-68
2022/12/23 04:53:50;;;;;;;12.50;11.10;;;10.00;99.90;;;;;;5076575;28;20474;-71
2022/12/23 04:56:17;;;;;;;12.43;10.60;;;10.00;99.90;;;;;;5077859;28;20458;-71
2022/12/23 04:58:44;;;;;;;14.50;11.10;;;9.90;99.90;;;;;;5074405;28;20850;-70
2022/12/23 05:01:12;;;;;;;13.63;10.40;;;10.00;99.90;;;;;;5079735;28;20485;-70
2022/12/23 05:03:39;;;;;;;12.30;11.30;;;10.00;99.90;;;;;;5076259;28;20455;-70
2022/12/23 05:06:07;;;;;;;12.70;11.43;;;10.10;99.90;;;;;;5081340;28;20952;-69
2022/12/23 05:08:34;;;;;;;20.00;11.60;;;10.10;99.90;;;;;;5077522;28;21066;-69
2022/12/23 05:11:03;;;;;;;15.40;11.77;;;10.20;99.90;;;;;;5080386;28;20466;-71
2022/12/23 05:13:31;;;;;;;12.40;11.10;;;10.10;99.90;;;;;;5075076;28;20900;-68
2022/12/23 05:15:58;;;;;;;15.07;11.57;;;10.00;99.90;;;;;;5078319;28;20501;-69
2022/12/23 05:18:25;;;;;;;19.33;13.60;;;10.00;99.90;;;;;;5081472;28;20514;-68
2022/12/23 05:20:51;;;;;;;17.17;14.33;;;9.90;99.90;;;;;;5078515;28;20713;-69
2022/12/23 05:23:18;;;;;;;15.77;14.10;;;9.90;99.90;;;;;;5080910;28;20465;-70
2022/12/23 05:25:50;;;;;;;16.63;12.90;;;9.80;99.90;;;;;;5077315;28;20965;-68
2022/12/23 05:28:19;;;;;;;19.60;15.50;;;9.80;99.90;;;;;;5078240;28;20553;-68
2022/12/23 05:30:45;;;;;;;28.07;22.10;;;9.90;99.90;;;;;;5076357;28;20488;-68
2022/12/23 05:33:12;;;;;;;29.67;24.87;;;9.90;99.90;;;;;;5081667;28;20520;-70
2022/12/23 05:35:40;;;;;;;29.57;21.70;;;9.90;99.90;;;;;;5074090;28;20811;-68
2022/12/23 05:38:07;;;;;;;21.57;15.53;;;9.90;99.90;;;;;;5074177;28;20559;-70
2022/12/23 05:40:34;;;;;;;18.83;14.23;;;10.00;99.90;;;;;;5082120;28;20458;-69
2022/12/23 05:43:02;;;;;;;36.53;16.57;;;10.10;99.90;;;;;;5077875;28;20466;-69
2022/12/23 05:45:30;;;;;;;22.60;13.77;;;10.20;99.90;;;;;;5083007;28;20461;-70
2022/12/23 05:47:56;;;;;;;23.87;17.10;;;10.00;99.90;;;;;;5080173;28;20466;-68
2022/12/23 05:50:23;;;;;;;25.07;17.83;;;10.10;99.90;;;;;;5081175;28;20466;-70
2022/12/23 05:52:50;;;;;;;29.60;18.10;;;10.20;99.90;;;;;;5080864;28;20455;-68
2022/12/23 05:55:17;;;;;;;28.20;17.00;;;10.20;99.90;;;;;;5086196;28;20485;-69
2022/12/23 05:57:44;;;;;;;27.63;17.50;;;10.10;99.90;;;;;;5082316;28;20485;-70
2022/12/23 06:00:11;;;;;;;24.50;18.30;;;10.20;99.90;;;;;;5084767;28;20484;-68
2022/12/23 06:02:41;;;;;;;23.27;15.63;;;10.30;99.90;;;;;;5082898;28;20458;-68
2022/12/23 06:05:10;;;;;;;26.00;15.43;;;10.20;99.90;;;;;;5080154;28;20516;-71
2022/12/23 06:07:37;;;;;;;17.90;13.70;;;10.30;99.90;;;;;;5085143;28;20485;-69
2022/12/23 06:10:04;;;;;;;20.00;14.17;;;10.30;99.90;;;;;;5080226;28;20457;-68
2022/12/23 06:12:31;;;;;;;22.57;14.03;;;10.30;99.90;;;;;;5086812;28;20461;-69
2022/12/23 06:14:58;;;;;;;16.23;13.70;;;10.30;99.90;;;;;;5082943;28;20470;-68
2022/12/23 06:17:25;;;;;;;15.13;12.10;;;10.30;99.90;;;;;;5083346;28;20501;-68
2022/12/23 06:19:53;;;;;;;20.73;11.70;;;10.30;99.90;;;;;;5086130;28;20473;-69
2022/12/23 06:22:22;;;;;;;15.93;11.60;;;10.30;99.90;;;;;;5085081;28;20466;-69
2022/12/23 06:24:50;;;;;;;15.27;12.60;;;10.40;99.90;;;;;;5081124;28;20976;-70
2022/12/23 06:27:17;;;;;;;15.83;12.10;;;10.40;99.90;;;;;;5080064;28;20488;-70
2022/12/23 06:29:44;;;;;;;16.57;12.60;;;10.40;99.90;;;;;;5080614;28;20508;-70
2022/12/23 06:32:11;;;;;;;24.57;13.27;;;10.40;99.90;;;;;;5073102;28;20474;-68
2022/12/23 06:34:38;;;;;;;16.17;11.83;;;10.40;99.90;;;;;;5083495;28;20466;-69
2022/12/23 06:37:07;;;;;;;20.70;14.07;;;10.40;99.90;;;;;;5087219;28;20462;-68
2022/12/23 06:39:33;;;;;;;20.93;13.43;;;10.50;99.90;;;;;;5080142;28;20489;-69
2022/12/23 06:42:00;;;;;;;27.20;18.20;;;10.50;99.90;;;;;;5074716;28;20465;-70
2022/12/23 06:44:27;;;;;;;26.23;16.23;;;10.50;99.90;;;;;;5076341;28;20829;-69
2022/12/23 06:46:54;;;;;;;14.60;13.10;;;10.40;99.90;;;;;;5071527;28;20466;-70
2022/12/23 06:49:21;;;;;;;26.23;14.90;;;10.50;99.90;;;;;;5077076;28;20460;-69
2022/12/23 06:51:48;;;;;;;16.93;11.87;;;10.50;99.90;;;;;;5087483;28;20499;-70
2022/12/23 06:54:16;;;;;;;16.20;12.63;;;10.50;99.90;;;;;;5078898;28;20471;-69
2022/12/23 06:56:43;;;;;;;17.67;13.73;;;10.40;99.90;;;;;;5079280;28;20463;-68
2022/12/23 06:59:10;;;;;;;17.13;13.37;;;10.30;99.90;;;;;;5079718;28;21084;-68
2022/12/23 07:01:36;;;;;;;16.73;13.20;;;10.40;99.90;;;;;;5079909;28;20498;-69
2022/12/23 07:04:03;;;;;;;17.00;12.60;;;10.40;99.90;;;;;;5094502;28;20481;-68
2022/12/23 07:06:30;;;;;;;18.33;12.63;;;10.40;99.90;;;;;;5085086;28;20461;-68
2022/12/23 07:08:57;;;;;;;14.53;11.70;;;10.30;99.90;;;;;;5079234;28;20516;-69
2022/12/23 07:11:25;;;;;;;15.60;11.10;;;10.40;99.90;;;;;;5080942;28;20973;-69
2022/12/23 07:13:52;;;;;;;14.13;11.60;;;10.50;99.90;;;;;;5078525;28;20470;-69
2022/12/23 07:16:19;;;;;;;17.57;13.00;;;10.50;99.90;;;;;;5081629;28;20477;-68
2022/12/23 07:18:46;;;;;;;14.00;12.53;;;10.40;99.90;;;;;;5082741;28;20486;-68
2022/12/23 07:21:13;;;;;;;16.17;11.70;;;10.40;99.90;;;;;;5082142;28;20461;-69
2022/12/23 07:23:40;;;;;;;16.90;13.20;;;10.40;99.90;;;;;;5079595;28;20501;-69
2022/12/23 07:26:06;;;;;;;16.80;11.53;;;10.40;99.90;;;;;;5083482;28;20464;-70
2022/12/23 07:28:35;;;;;;;13.17;11.20;;;10.40;99.90;;;;;;5075931;28;20474;-69
2022/12/23 07:31:05;;;;;;;15.23;11.83;;;10.20;99.90;;;;;;5083735;28;20886;-69
2022/12/23 07:33:32;;;;;;;18.43;13.60;;;10.20;99.90;;;;;;5085158;28;20470;-69
2022/12/23 07:36:00;;;;;;;14.43;12.20;;;10.30;99.90;;;;;;5084793;28;20461;-70
2022/12/23 07:38:26;;;;;;;13.07;11.20;;;10.30;99.90;;;;;;5092930;28;20484;-68
2022/12/23 07:40:53;;;;;;;17.63;11.90;;;10.30;99.90;;;;;;5085439;28;20938;-69
2022/12/23 07:43:20;;;;;;;17.43;13.00;;;10.30;99.90;;;;;;5083282;28;20457;-70
2022/12/23 07:45:48;;;;;;;15.93;10.30;;;10.30;99.90;;;;;;5086220;28;20560;-71
2022/12/23 07:48:15;;;;;;;13.50;11.10;;;10.20;99.90;;;;;;5080652;28;20468;-68
2022/12/23 07:50:42;;;;;;;11.87;10.57;;;10.20;99.90;;;;;;5089593;28;20458;-69
2022/12/23 07:53:09;;;;;;;12.50;11.23;;;10.30;99.90;;;;;;5083638;28;20459;-68
2022/12/23 07:55:36;;;;;;;16.03;10.60;;;10.30;99.90;;;;;;5081854;28;20816;-68
2022/12/23 07:58:03;;;;;;;17.03;11.50;;;10.30;99.90;;;;;;5077384;28;20495;-69
2022/12/23 08:00:29;;;;;;;16.30;11.00;;;10.20;99.90;;;;;;5085646;28;20474;-70
2022/12/23 08:02:57;;;;;;;11.20;10.00;;;10.20;99.90;;;;;;5070674;28;20458;-69
2022/12/23 08:05:24;;;;;;;17.57;11.37;;;10.20;99.90;;;;;;5073064;28;20494;-68
2022/12/23 08:07:52;;;;;;;16.00;10.70;;;10.20;99.90;;;;;;5077288;28;20451;-68
2022/12/23 08:10:19;;;;;;;16.57;10.20;;;10.30;99.90;;;;;;5065869;28;20824;-68
2022/12/23 08:12:46;;;;;;;19.47;11.90;;;10.20;99.90;;;;;;5082975;28;20498;-69
2022/12/23 08:15:13;;;;;;;20.07;12.60;;;10.30;99.90;;;;;;5072821;28;20470;-69
2022/12/23 08:17:40;;;;;;;17.97;12.00;;;10.30;99.90;;;;;;5079945;28;20458;-70
2022/12/23 08:20:10;;;;;;;15.03;11.67;;;10.40;99.90;;;;;;5080828;28;20473;-69
2022/12/23 08:22:37;;;;;;;14.87;11.47;;;10.30;99.90;;;;;;5083601;28;20552;-69
2022/12/23 08:25:04;;;;;;;15.30;10.87;;;10.30;99.90;;;;;;5083679;28;20470;-68
2022/12/23 08:27:31;;;;;;;19.57;10.80;;;10.40;99.90;;;;;;5078220;28;20461;-70
2022/12/23 08:29:57;;;;;;;12.07;10.90;;;10.40;99.90;;;;;;5080835;28;20541;-70
2022/12/23 08:32:26;;;;;;;13.73;11.20;;;10.50;99.90;;;;;;5077270;28;20466;-71
2022/12/23 08:34:55;;;;;;;16.77;10.93;;;10.40;99.90;;;;;;5081121;28;20833;-71
2022/12/23 08:37:24;;;;;;;21.43;13.27;;;10.50;99.90;;;;;;5090770;28;20463;-70
2022/12/23 08:39:50;;;;;;;12.87;11.57;;;10.50;99.90;;;;;;5083673;28;20554;-70
2022/12/23 08:42:17;;;;;;;13.70;11.40;;;10.50;99.90;;;;;;5080574;28;20469;-70
2022/12/23 08:44:44;;;;;;;11.77;10.67;;;10.50;99.90;;;;;;5079412;28;20454;-70
2022/12/23 08:47:11;;;;;;;14.70;11.13;;;10.50;99.90;;;;;;5077700;28;20507;-70
2022/12/23 08:49:37;;;;;;;18.50;10.43;;;10.40;99.90;;;;;;5069445;28;20460;-68
2022/12/23 08:52:04;;;;;;;11.03;9.90;;;10.50;99.90;;;;;;5075148;28;20571;-69
2022/12/23 08:54:33;;;;;;;17.90;11.07;;;10.30;99.90;;;;;;5083298;28;20465;-70
2022/12/23 08:57:00;;;;;;;11.50;9.70;;;10.50;99.90;;;;;;5078167;28;20458;-70
2022/12/23 08:59:26;;;;;;;11.80;10.33;;;10.60;99.90;;;;;;5069899;28;20493;-69
2022/12/23 09:01:53;;;;;;;10.50;9.07;;;10.60;99.90;;;;;;5085957;28;20485;-70
2022/12/23 09:04:20;;;;;;;13.50;11.87;;;10.60;99.90;;;;;;5079090;28;20543;-68
2022/12/23 09:06:46;;;;;;;11.10;9.00;;;10.60;99.90;;;;;;5069557;28;20469;-71
2022/12/23 09:09:15;;;;;;;10.73;9.17;;;10.60;99.90;;;;;;5073624;28;20461;-69
2022/12/23 09:11:43;;;;;;;17.23;9.60;;;10.60;99.90;;;;;;5080599;28;20582;-70
2022/12/23 09:14:11;;;;;;;16.70;9.80;;;10.60;99.90;;;;;;5077316;28;20865;-70
2022/12/23 09:16:38;;;;;;;17.40;11.20;;;10.70;99.90;;;;;;5085096;28;20442;-71
2022/12/23 09:19:06;;;;;;;23.93;9.93;;;10.60;99.90;;;;;;5084032;28;20493;-69
2022/12/23 09:21:33;;;;;;;15.97;10.77;;;10.70;99.90;;;;;;5084851;28;20854;-70
2022/12/23 09:24:01;;;;;;;12.63;9.93;;;10.70;99.90;;;;;;5089727;28;20463;-69
2022/12/23 09:26:30;;;;;;;15.37;9.43;;;10.70;99.90;;;;;;5088469;28;21629;-70
2022/12/23 09:28:58;;;;;;;19.53;10.07;;;10.70;99.90;;;;;;5091548;28;20504;-71
2022/12/23 09:31:26;;;;;;;12.00;10.60;;;10.70;99.90;;;;;;5087357;28;20463;-70
2022/12/23 09:33:54;;;;;;;11.37;9.67;;;10.60;99.90;;;;;;5076103;28;20453;-70
2022/12/23 09:36:21;;;;;;;12.67;10.30;;;10.60;99.90;;;;;;5069090;28;20456;-71
2022/12/23 09:38:53;;;;;;;10.63;9.63;;;10.70;99.90;;;;;;5085814;28;20572;-69
2022/12/23 09:41:31;;;;;;;92.43;27.80;;;10.60;99.90;;;;;;5079888;28;20465;-68
2022/12/23 09:44:14;;;;;;;12.57;10.10;;;10.70;99.90;;;;;;5083402;28;20464;-68
2022/12/23 09:46:47;;;;;;;127.90;41.33;;;10.60;99.90;;;;;;5082397;28;20661;-69
2022/12/23 09:49:16;;;;;;;28.50;25.47;;;10.60;99.90;;;;;;5081081;28;20498;-70
2022/12/23 09:51:44;;;;;;;16.83;14.10;;;10.60;99.90;;;;;;5074925;28;20570;-69
2022/12/23 09:54:15;;;;;;;21.33;12.30;;;10.50;99.90;;;;;;5085305;28;20467;-69
2022/12/23 09:56:51;;;;;;;276.10;34.13;;;10.50;99.90;;;;;;5090729;28;20974;-69
2022/12/23 09:59:38;;;;;;;60.83;18.40;;;10.60;99.90;;;;;;5093869;28;20492;-69
2022/12/23 10:02:17;;;;;;;12.87;10.43;;;10.50;99.90;;;;;;5077936;28;20453;-69
2022/12/23 10:04:56;;;;;;;14.60;12.60;;;10.60;99.90;;;;;;5094216;28;20491;-70
2022/12/23 10:07:31;;;;;;;18.00;16.30;;;10.60;99.90;;;;;;5091560;28;20484;-69
2022/12/23 10:10:07;;;;;;;11.40;10.20;;;10.60;99.90;;;;;;5085150;28;20473;-71
2022/12/23 10:12:38;;;;;;;11.90;9.17;;;10.50;99.90;;;;;;5086891;28;20497;-70
2022/12/23 10:15:19;;;;;;;10.90;9.73;;;10.70;99.90;;;;;;5091169;28;20546;-69
2022/12/23 10:17:48;;;;;;;9.53;8.67;;;10.80;99.90;;;;;;5080665;28;20831;-69
2022/12/23 10:20:19;;;;;;;8.93;8.13;;;10.80;99.90;;;;;;5081422;28;20489;-69
2022/12/23 10:22:47;;;;;;;12.60;8.50;;;10.70;99.90;;;;;;5082389;28;20472;-69
2022/12/23 10:25:19;;;;;;;11.90;9.43;;;10.90;99.90;;;;;;5082762;28;20809;-70
2022/12/23 10:27:46;;;;;;;10.83;9.70;;;10.90;99.90;;;;;;5084319;28;20524;-71
2022/12/23 10:30:16;;;;;;;11.00;10.10;;;10.90;99.90;;;;;;5085047;28;20454;-70
2022/12/23 10:32:59;;;;;;;14.03;11.87;;;10.90;99.90;;;;;;5086105;28;20466;-71
2022/12/23 10:35:44;;;;;;;11.90;10.33;;;10.80;99.90;;;;;;5079645;28;20466;-69
2022/12/23 10:38:32;;;;;;;11.10;10.10;;;10.80;99.90;;;;;;5085944;28;20473;-69
2022/12/23 10:41:08;;;;;;;15.10;11.30;;;10.90;99.90;;;;;;5078235;28;20458;-70
2022/12/23 10:43:51;;;;;;;12.13;10.53;;;10.80;99.90;;;;;;5077979;28;20482;-69
2022/12/23 10:46:29;;;;;;;11.50;10.50;;;10.90;99.90;;;;;;5082339;28;20549;-70
2022/12/23 10:49:03;;;;;;;12.77;11.20;;;10.80;99.90;;;;;;5078070;28;20951;-70
2022/12/23 10:51:34;;;;;;;13.33;11.10;;;10.80;99.90;;;;;;5072546;28;20470;-68
2022/12/23 10:54:05;;;;;;;11.70;10.60;;;10.80;99.90;;;;;;5088847;28;20458;-70
2022/12/23 10:56:32;;;;;;;12.47;11.23;;;10.70;99.90;;;;;;5084345;28;20450;-69
2022/12/23 10:59:01;;;;;;;12.30;11.20;;;10.70;99.90;;;;;;5078771;28;20485;-70
2022/12/23 11:01:30;;;;;;;11.90;10.90;;;10.70;99.90;;;;;;5081530;28;20883;-68
2022/12/23 11:04:06;;;;;;;12.33;11.20;;;10.70;99.90;;;;;;5075923;28;20489;-69
2022/12/23 11:06:38;;;;;;;13.40;10.17;;;10.70;99.90;;;;;;5078732;28;20481;-70
2022/12/23 11:09:06;;;;;;;13.50;11.17;;;10.70;99.90;;;;;;5086728;28;21413;-70
2022/12/23 11:11:55;;;;;;;15.73;11.63;;;10.70;99.90;;;;;;5081860;28;20533;-70
2022/12/23 11:14:33;;;;;;;13.07;11.90;;;10.70;99.90;;;;;;5081469;28;20465;-69
2022/12/23 11:17:02;;;;;;;18.80;15.20;;;10.70;99.90;;;;;;5079378;28;21125;-68
2022/12/23 11:19:29;;;;;;;20.67;16.47;;;10.80;99.90;;;;;;5076479;28;20501;-68
2022/12/23 11:21:57;;;;;;;18.70;17.20;;;10.70;99.90;;;;;;5077609;28;20474;-68
2022/12/23 11:24:25;;;;;;;22.23;20.13;;;10.70;99.90;;;;;;5084435;28;21389;-69
2022/12/23 11:27:00;;;;;;;22.30;20.10;;;10.60;99.90;;;;;;5080453;28;20467;-70
2022/12/23 11:29:32;;;;;;;23.67;21.40;;;10.50;99.90;;;;;;5081852;28;20457;-70
2022/12/23 11:31:59;;;;;;;26.53;23.20;;;10.40;99.90;;;;;;5075616;28;20454;-69
2022/12/23 11:34:30;;;;;;;26.13;23.33;;;10.30;99.90;;;;;;5080039;28;20466;-68
2022/12/23 11:36:59;;;;;;;25.70;22.87;;;10.30;99.90;;;;;;5071154;28;20478;-69
2022/12/23 11:39:28;;;;;;;35.23;23.40;;;10.20;99.90;;;;;;5078487;28;20474;-69
2022/12/23 11:42:04;;;;;;;40.60;22.17;;;10.10;99.90;;;;;;5082797;28;20481;-70
2022/12/23 11:44:35;;;;;;;26.33;21.60;;;10.10;99.90;;;;;;5081026;28;20456;-71
2022/12/23 11:47:24;;;;;;;31.03;21.27;;;10.10;99.90;;;;;;5080371;28;20508;-70
2022/12/23 11:49:55;;;;;;;21.63;19.30;;;10.00;99.90;;;;;;5074941;28;20552;-70
2022/12/23 11:52:23;;;;;;;27.20;19.93;;;10.00;99.90;;;;;;5079723;28;20872;-70
2022/12/23 11:54:52;;;;;;;22.10;19.20;;;9.90;99.90;;;;;;5081988;28;20881;-71
2022/12/23 11:57:24;;;;;;;21.57;17.17;;;9.90;99.90;;;;;;5072737;28;20458;-70
2022/12/23 11:59:57;;;;;;;19.30;17.47;;;9.90;99.90;;;;;;5071292;28;21078;-71
2022/12/23 12:02:31;;;;;;;23.97;19.00;;;9.90;99.90;;;;;;5083115;28;20446;-71
2022/12/23 12:05:02;;;;;;;19.77;17.77;;;10.00;99.90;;;;;;5079374;28;20485;-72
2022/12/23 12:07:30;;;;;;;18.43;16.80;;;10.00;99.90;;;;;;5078392;28;21012;-70
2022/12/23 12:09:58;;;;;;;20.33;18.20;;;10.00;99.90;;;;;;5078353;28;20470;-72
2022/12/23 12:12:27;;;;;;;19.80;17.70;;;9.90;99.90;;;;;;5075680;28;20772;-71
2022/12/23 12:14:56;;;;;;;25.40;20.10;;;9.90;99.90;;;;;;5084563;28;20466;-70
2022/12/23 12:17:27;;;;;;;21.00;18.87;;;9.80;99.90;;;;;;5081163;28;20473;-71
2022/12/23 12:20:03;;;;;;;19.67;16.50;;;9.80;99.90;;;;;;5076422;28;20557;-70
2022/12/23 12:22:36;;;;;;;18.70;16.53;;;9.80;99.90;;;;;;5081507;28;20494;-73
2022/12/23 12:25:12;;;;;;;17.87;16.00;;;9.80;99.90;;;;;;5079566;28;20473;-71
2022/12/23 12:27:40;;;;;;;17.33;15.83;;;9.80;99.90;;;;;;5079131;28;20510;-71
2022/12/23 12:30:12;;;;;;;15.23;14.30;;;9.80;99.90;;;;;;5074745;28;20463;-71
2022/12/23 12:32:45;;;;;;;17.40;15.77;;;9.70;99.90;;;;;;5079260;28;20737;-72
2022/12/23 12:35:17;;;;;;;15.40;14.40;;;9.70;99.90;;;;;;5077401;28;21073;-73
2022/12/23 12:37:49;;;;;;;16.77;15.37;;;9.70;99.90;;;;;;5075349;28;20981;-71
2022/12/23 12:40:25;;;;;;;16.63;15.50;;;9.80;99.90;;;;;;5084543;28;20493;-71
2022/12/23 12:42:58;;;;;;;16.10;14.60;;;9.80;99.90;;;;;;5076459;28;20832;-71
2022/12/23 12:45:33;;;;;;;20.30;14.00;;;9.70;99.90;;;;;;5079049;28;20469;-71
2022/12/23 12:48:14;;;;;;;15.23;13.73;;;9.70;99.90;;;;;;5081384;28;20547;-70
2022/12/23 12:50:49;;;;;;;16.00;14.50;;;9.70;99.90;;;;;;5081145;28;20827;-71
2022/12/23 12:53:19;;;;;;;15.00;13.60;;;9.80;99.90;;;;;;5080465;28;21057;-71
2022/12/23 12:55:52;;;;;;;16.20;13.40;;;9.70;99.90;;;;;;5078886;28;20990;-71
2022/12/23 12:58:21;;;;;;;14.83;13.80;;;9.70;99.90;;;;;;5073669;28;20450;-71
2022/12/23 13:00:59;;;;;;;15.67;14.30;;;9.70;99.90;;;;;;5078367;28;20478;-71
2022/12/23 13:03:42;;;;;;;18.90;14.30;;;9.60;99.90;;;;;;5078176;28;20833;-73
2022/12/23 13:06:20;;;;;;;14.80;13.70;;;9.50;99.90;;;;;;5042687;28;20970;-72
2022/12/23 13:09:00;;;;;;;14.67;13.40;;;9.50;99.90;;;;;;5051919;28;20822;-74
2022/12/23 13:11:36;;;;;;;13.93;13.03;;;9.50;99.90;;;;;;5060253;28;20522;-71